Time;durP1;ratioP1;P1;durP2;ratioP2;P2;SDS_P1;SDS_P2;PMS_P1;PMS_P2;Temp;Humidity;BMP_temperature;BMP_pressure;BME280_temperature;BME280_humidity;BME280_pressure;Samples;Min_cycle;Max_cycle;Signal;HPM_P1;HPM_P2
2024/02/02 00:00:55;;;;;;;43.67;19.88;;;;;;;1.00;62.23;100111.91;4953678;29;20023;-39
2024/02/02 00:03:20;;;;;;;47.65;19.77;;;;;;;1.16;61.63;100125.34;4953343;29;20480;-38
2024/02/02 00:05:46;;;;;;;43.20;19.50;;;;;;;1.29;60.33;100126.88;4953402;29;20034;-40
2024/02/02 00:08:11;;;;;;;45.15;20.13;;;;;;;1.13;61.01;100127.41;4952989;29;20393;-40
2024/02/02 00:10:37;;;;;;;47.90;19.90;;;;;;;1.04;62.11;100133.44;4953402;29;20037;-39
2024/02/02 00:13:02;;;;;;;43.15;19.15;;;;;;;1.16;61.25;100133.22;4953489;29;20094;-40
2024/02/02 00:15:28;;;;;;;40.00;18.50;;;;;;;1.13;61.44;100125.59;4953514;29;20109;-40
2024/02/02 00:17:53;;;;;;;48.90;19.30;;;;;;;0.96;62.28;100121.81;4953920;29;20027;-40
2024/02/02 00:20:18;;;;;;;43.20;19.33;;;;;;;1.13;61.18;100128.22;4936122;29;20109;-40
2024/02/02 00:22:44;;;;;;;47.65;19.67;;;;;;;1.09;61.19;100126.84;4953296;29;20031;-40
2024/02/02 00:25:09;;;;;;;41.17;19.85;;;;;;;1.16;60.55;100121.88;4953237;29;20031;-39
2024/02/02 00:27:34;;;;;;;39.00;18.63;;;;;;;1.21;61.35;100118.88;4953028;29;20035;-39
2024/02/02 00:30:00;;;;;;;50.63;19.23;;;;;;;1.17;60.54;100116.50;4953176;29;20093;-39
2024/02/02 00:32:25;;;;;;;42.95;18.15;;;;;;;1.01;61.89;100113.56;4952967;29;20042;-39
2024/02/02 00:34:51;;;;;;;39.05;18.60;;;;;;;1.26;61.43;100107.00;4952806;29;20031;-39
2024/02/02 00:37:16;;;;;;;41.17;17.85;;;;;;;1.12;61.38;100105.59;4952790;29;20162;-40
2024/02/02 00:39:42;;;;;;;40.67;18.25;;;;;;;1.19;60.93;100108.50;4951729;28;20029;-40
2024/02/02 00:42:07;;;;;;;33.25;16.77;;;;;;;1.41;61.15;100110.09;4952654;29;20027;-40
2024/02/02 00:44:32;;;;;;;41.08;17.70;;;;;;;1.41;60.11;100104.00;4952768;29;20031;-40
2024/02/02 00:46:58;;;;;;;42.10;17.45;;;;;;;1.22;60.47;100104.78;4952337;29;20035;-38
2024/02/02 00:49:24;;;;;;;39.17;17.17;;;;;;;1.25;60.68;100104.50;4952397;29;20034;-40
2024/02/02 00:51:50;;;;;;;34.08;17.02;;;;;;;1.27;61.50;100095.53;4952491;29;20434;-39
2024/02/02 00:54:16;;;;;;;34.35;16.67;;;;;;;1.30;60.88;100105.78;4952486;29;20031;-39
2024/02/02 00:56:41;;;;;;;36.88;16.58;;;;;;;1.35;60.79;100097.50;4952389;29;20118;-40
2024/02/02 00:59:06;;;;;;;32.38;15.93;;;;;;;1.41;61.00;100099.59;4952357;29;20039;-39
2024/02/02 01:01:32;;;;;;;38.45;16.73;;;;;;;1.31;61.31;100098.72;4951952;29;20031;-38
2024/02/02 01:03:57;;;;;;;29.40;14.63;;;;;;;1.31;61.49;100090.88;4952228;29;20030;-40
2024/02/02 01:06:22;;;;;;;30.75;13.60;;;;;;;1.55;61.17;100096.56;4952386;29;20031;-40
2024/02/02 01:08:48;;;;;;;26.15;12.05;;;;;;;1.66;61.99;100085.13;4952008;29;20086;-39
2024/02/02 01:11:13;;;;;;;24.48;11.52;;;;;;;1.64;62.35;100086.19;4952322;29;20031;-42
2024/02/02 01:13:39;;;;;;;17.67;8.88;;;;;;;2.00;62.08;100083.84;4952427;29;20058;-40
2024/02/02 01:16:05;;;;;;;18.52;8.50;;;;;;;2.70;59.60;100077.34;4952530;29;20027;-40
2024/02/02 01:18:30;;;;;;;15.52;7.57;;;;;;;3.13;58.72;100082.94;4952280;29;20027;-40
2024/02/02 01:20:56;;;;;;;19.67;8.77;;;;;;;3.41;57.33;100075.00;4952197;29;20031;-40
2024/02/02 01:23:21;;;;;;;16.77;8.32;;;;;;;3.41;57.31;100073.22;4952220;29;20089;-39
2024/02/02 01:25:47;;;;;;;20.52;9.85;;;;;;;3.57;56.38;100079.63;4951901;29;20035;-39
2024/02/02 01:28:12;;;;;;;20.35;10.55;;;;;;;3.59;56.02;100073.22;4952126;29;20086;-39
2024/02/02 01:30:37;;;;;;;18.65;9.60;;;;;;;3.31;56.31;100067.19;4952542;29;20428;-40
2024/02/02 01:33:04;;;;;;;21.95;10.75;;;;;;;3.31;56.50;100067.19;4952519;29;20058;-39
2024/02/02 01:35:29;;;;;;;14.32;7.63;;;;;;;3.57;56.53;100064.66;4952651;29;20039;-40
2024/02/02 01:37:54;;;;;;;12.30;6.47;;;;;;;3.99;55.47;100055.31;4952538;29;20037;-40
2024/02/02 01:40:20;;;;;;;14.95;6.65;;;;;;;4.05;55.26;100046.78;4952526;29;20035;-40
2024/02/02 01:42:45;;;;;;;10.02;5.88;;;;;;;4.58;53.96;100045.78;4952711;29;20102;-40
2024/02/02 01:45:11;;;;;;;13.00;5.55;;;;;;;4.66;53.55;100047.63;4952201;29;20050;-39
2024/02/02 01:47:36;;;;;;;8.80;4.93;;;;;;;5.13;52.44;100039.25;4952745;29;20027;-38
2024/02/02 01:50:02;;;;;;;9.55;4.88;;;;;;;5.19;52.39;100029.88;4953881;28;20033;-38
2024/02/02 01:52:29;;;;;;;10.38;4.80;;;;;;;5.24;51.92;100035.50;4956397;29;20492;-35
2024/02/02 01:54:55;;;;;;;8.15;4.05;;;;;;;5.36;51.91;100039.47;4956265;29;20031;-33
2024/02/02 01:57:21;;;;;;;7.93;4.00;;;;;;;5.44;51.53;100034.19;4956440;29;20031;-33
2024/02/02 01:59:47;;;;;;;10.90;3.85;;;;;;;5.70;50.95;100027.13;4956370;29;20429;-34
2024/02/02 02:02:13;;;;;;;7.03;3.70;;;;;;;5.95;50.00;100036.72;4956336;29;20034;-34
2024/02/02 02:04:42;;;;;;;8.70;3.50;;;;;;;5.74;50.58;100033.75;4956217;29;20023;-34
2024/02/02 02:07:08;;;;;;;6.97;3.60;;;;;;;5.82;50.52;100025.81;4956053;29;20034;-34
2024/02/02 02:09:34;;;;;;;6.38;3.35;;;;;;;5.97;50.26;100039.22;4955718;29;20027;-34
2024/02/02 02:12:00;;;;;;;6.00;3.50;;;;;;;6.09;49.70;100027.28;4955996;29;20404;-33
2024/02/02 02:14:26;;;;;;;5.82;3.50;;;;;;;5.92;50.73;100033.56;4956314;29;20031;-33
2024/02/02 02:16:51;;;;;;;6.70;3.50;;;;;;;6.15;49.83;100029.28;4955820;29;20550;-33
2024/02/02 02:19:17;;;;;;;8.82;3.60;;;;;;;6.04;50.80;100038.38;4955980;29;20066;-33
2024/02/02 02:21:43;;;;;;;5.72;3.45;;;;;;;6.05;50.81;100040.03;4955923;29;20423;-34
2024/02/02 02:24:09;;;;;;;9.27;3.63;;;;;;;6.12;51.04;100036.72;4955213;29;20118;-34
2024/02/02 02:26:35;;;;;;;4.65;3.30;;;;;;;6.28;50.60;100028.75;4955808;29;20106;-34
2024/02/02 02:29:00;;;;;;;6.85;3.75;;;;;;;6.13;51.33;100027.78;4955830;29;20496;-33
2024/02/02 02:31:27;;;;;;;7.93;3.15;;;;;;;6.08;50.72;100025.66;4955844;29;20027;-33
2024/02/02 02:33:52;;;;;;;6.18;3.33;;;;;;;6.25;50.64;100034.38;4955586;29;20055;-26
2024/02/02 02:36:18;;;;;;;6.78;3.53;;;;;;;6.34;50.54;100035.19;4955991;29;20061;-27
2024/02/02 02:38:43;;;;;;;5.35;3.42;;;;;;;6.60;49.61;100034.94;4955651;29;20027;-26
2024/02/02 02:41:09;;;;;;;7.38;3.25;;;;;;;6.46;49.95;100032.03;4955638;29;20031;-27
2024/02/02 02:43:34;;;;;;;7.93;3.53;;;;;;;6.78;49.42;100040.84;4955604;29;20473;-27
2024/02/02 02:46:00;;;;;;;6.13;3.47;;;;;;;6.75;49.65;100043.81;4955508;29;20023;-27
2024/02/02 02:48:26;;;;;;;6.45;3.45;;;;;;;6.88;49.08;100045.13;4955479;29;20074;-27
2024/02/02 02:50:51;;;;;;;10.32;3.35;;;;;;;6.84;49.27;100031.41;4955504;29;20050;-27
2024/02/02 02:53:17;;;;;;;5.95;3.67;;;;;;;7.00;48.76;100044.53;4955401;29;20475;-27
2024/02/02 02:55:42;;;;;;;8.27;3.65;;;;;;;7.08;48.48;100040.22;4955306;29;20031;-26
2024/02/02 02:58:08;;;;;;;6.25;3.65;;;;;;;7.17;48.47;100039.16;4955521;29;20027;-27
2024/02/02 03:00:33;;;;;;;9.45;3.22;;;;;;;7.17;48.25;100033.88;4955494;29;20547;-27
2024/02/02 03:02:59;;;;;;;9.82;3.30;;;;;;;7.21;48.08;100032.53;4954998;28;20456;-27
2024/02/02 03:05:29;;;;;;;6.85;3.22;;;;;;;7.25;47.56;100031.16;4955688;29;20465;-27
2024/02/02 03:07:55;;;;;;;6.20;3.00;;;;;;;7.31;47.65;100037.59;4956097;29;20027;-27
2024/02/02 03:10:22;;;;;;;4.95;3.05;;;;;;;7.34;47.66;100031.97;4955936;29;20023;-45
2024/02/02 03:12:47;;;;;;;5.40;3.10;;;;;;;7.28;47.83;100037.97;4955923;29;20105;-39
2024/02/02 03:15:13;;;;;;;5.93;3.00;;;;;;;7.18;48.08;100028.41;4955936;29;20611;-39
2024/02/02 03:17:38;;;;;;;7.05;3.25;;;;;;;7.35;47.71;100031.78;4955186;29;20081;-40
2024/02/02 03:20:07;;;;;;;7.90;3.20;;;;;;;7.15;47.87;100031.41;4954769;29;20051;-40
2024/02/02 03:22:33;;;;;;;6.72;3.15;;;;;;;7.10;48.04;100036.41;4954652;29;20033;-40
2024/02/02 03:24:58;;;;;;;6.10;3.08;;;;;;;7.18;47.96;100032.91;4954873;29;20023;-39
2024/02/02 03:27:23;;;;;;;5.07;3.03;;;;;;;7.15;48.38;100035.88;4954381;29;20027;-40
2024/02/02 03:29:49;;;;;;;5.28;3.05;;;;;;;7.28;47.64;100022.91;4954482;29;20098;-39
2024/02/02 03:32:14;;;;;;;6.30;3.30;;;;;;;7.44;47.43;100037.84;4954655;29;20046;-39
2024/02/02 03:34:40;;;;;;;7.55;3.15;;;;;;;7.48;47.40;100041.78;4954603;29;20337;-39
2024/02/02 03:37:05;;;;;;;5.57;2.95;;;;;;;7.37;47.47;100029.78;4954293;29;20027;-40
2024/02/02 03:39:32;;;;;;;5.78;2.90;;;;;;;7.21;48.14;100033.34;4954044;29;20023;-37
2024/02/02 03:41:58;;;;;;;5.85;3.20;;;;;;;7.36;47.53;100045.84;4954357;29;20056;-36
2024/02/02 03:44:23;;;;;;;13.63;3.15;;;;;;;7.36;47.90;100040.56;4937155;29;20027;-39
2024/02/02 03:46:49;;;;;;;5.10;3.13;;;;;;;7.29;48.03;100043.09;4954322;29;20042;-39
2024/02/02 03:49:14;;;;;;;7.90;3.30;;;;;;;7.49;47.50;100047.91;4936809;29;20103;-39
2024/02/02 03:51:40;;;;;;;9.07;3.53;;;;;;;7.41;48.05;100054.09;4954158;29;20027;-40
2024/02/02 03:54:05;;;;;;;7.50;3.40;;;;;;;7.49;47.73;100047.91;4954119;29;20087;-40
2024/02/02 03:56:31;;;;;;;4.43;3.17;;;;;;;7.56;47.60;100046.22;4953692;29;20058;-39
2024/02/02 03:58:56;;;;;;;7.15;3.33;;;;;;;7.28;48.15;100054.66;4954206;29;20396;-39
2024/02/02 04:01:21;;;;;;;6.50;3.40;;;;;;;7.34;48.31;100051.31;4953705;29;20024;-40
2024/02/02 04:03:47;;;;;;;8.30;3.70;;;;;;;7.57;47.87;100056.63;4953784;29;20123;-37
2024/02/02 04:06:12;;;;;;;5.60;3.70;;;;;;;7.62;47.89;100059.56;4954161;29;20030;-39
2024/02/02 04:08:37;;;;;;;9.07;3.53;;;;;;;7.44;48.09;100053.72;4953809;29;20023;-40
2024/02/02 04:11:03;;;;;;;5.60;3.60;;;;;;;7.42;48.48;100047.78;4953774;29;20383;-40
2024/02/02 04:13:28;;;;;;;6.72;3.80;;;;;;;7.49;48.16;100061.16;4952481;28;20114;-36
2024/02/02 04:15:54;;;;;;;9.50;4.72;;;;;;;7.47;48.56;100068.47;4953733;29;20019;-37
2024/02/02 04:18:19;;;;;;;7.18;3.83;;;;;;;7.05;50.06;100063.38;4953653;29;20096;-39
2024/02/02 04:20:45;;;;;;;9.07;4.90;;;;;;;7.10;50.31;100062.03;4953684;29;20475;-38
2024/02/02 04:23:10;;;;;;;9.95;4.22;;;;;;;7.20;49.81;100062.66;4953732;29;20035;-36
2024/02/02 04:25:35;;;;;;;9.25;5.60;;;;;;;7.49;49.49;100066.47;4953763;29;20059;-39
2024/02/02 04:28:01;;;;;;;12.00;4.82;;;;;;;7.58;49.32;100078.66;4953526;29;20027;-37
2024/02/02 04:30:29;;;;;;;12.98;4.80;;;;;;;7.57;49.18;100083.09;4952676;29;20035;-37
2024/02/02 04:32:55;;;;;;;8.82;4.63;;;;;;;7.63;49.55;100074.47;4949578;29;20047;-39
2024/02/02 04:35:20;;;;;;;7.40;4.28;;;;;;;7.71;49.00;100078.03;4952711;29;20027;-38
2024/02/02 04:37:45;;;;;;;12.25;5.10;;;;;;;7.75;48.99;100082.00;4938824;29;20031;-39
2024/02/02 04:40:11;;;;;;;8.45;4.65;;;;;;;7.89;49.12;100086.53;4941841;29;20108;-36
2024/02/02 04:42:36;;;;;;;12.50;5.90;;;;;;;7.94;48.40;100085.97;4943387;29;20039;-39
2024/02/02 04:45:02;;;;;;;13.35;5.57;;;;;;;7.87;48.68;100082.41;4949476;29;20035;-38
2024/02/02 04:47:27;;;;;;;10.95;5.20;;;;;;;7.85;48.25;100087.06;4938101;29;20459;-39
2024/02/02 04:49:53;;;;;;;9.27;4.78;;;;;;;7.82;47.96;100091.72;4936019;29;20501;-38
2024/02/02 04:52:18;;;;;;;10.60;4.85;;;;;;;7.64;48.28;100099.13;4945598;29;20118;-37
2024/02/02 04:54:44;;;;;;;12.43;5.75;;;;;;;7.80;47.91;100099.00;4921027;29;20074;-40
2024/02/02 04:57:09;;;;;;;11.27;5.43;;;;;;;7.54;48.01;100106.47;4950976;29;20037;-36
2024/02/02 04:59:34;;;;;;;12.45;5.93;;;;;;;7.64;47.78;100107.09;4953063;29;20066;-41
2024/02/02 05:02:00;;;;;;;9.70;5.72;;;;;;;7.69;47.53;100111.84;4953016;29;20031;-39
2024/02/02 05:04:25;;;;;;;11.38;6.65;;;;;;;7.71;47.15;100097.44;4953630;29;20030;-39
2024/02/02 05:06:50;;;;;;;12.35;6.05;;;;;;;7.65;47.28;100106.06;4953434;29;20027;-37
2024/02/02 05:09:16;;;;;;;11.60;6.85;;;;;;;7.76;47.28;100112.78;4953804;29;20101;-40
2024/02/02 05:11:41;;;;;;;15.15;6.78;;;;;;;7.75;47.06;100093.44;4953457;29;20039;-40
2024/02/02 05:14:07;;;;;;;13.98;7.60;;;;;;;7.84;46.91;100110.06;4953005;29;20034;-40
2024/02/02 05:16:32;;;;;;;16.92;7.50;;;;;;;7.75;47.35;100108.47;4953084;29;20106;-37
2024/02/02 05:18:57;;;;;;;13.65;7.28;;;;;;;7.49;48.21;100119.44;4953260;29;20082;-38
2024/02/02 05:21:23;;;;;;;13.70;7.30;;;;;;;7.89;47.07;100114.88;4953343;29;20329;-39
2024/02/02 05:23:48;;;;;;;12.15;6.80;;;;;;;7.89;46.82;100120.16;4953075;29;20023;-39
2024/02/02 05:26:14;;;;;;;12.85;6.88;;;;;;;8.00;47.15;100136.47;4956254;28;20114;-39
2024/02/02 05:28:40;;;;;;;18.13;8.05;;;;;;;7.84;47.26;100136.56;4957002;29;20031;-39
2024/02/02 05:31:06;;;;;;;13.95;7.38;;;;;;;7.73;47.79;100139.63;4957186;29;20039;-38
2024/02/02 05:33:31;;;;;;;15.68;7.43;;;;;;;7.88;47.46;100145.84;4956566;29;20578;-37
2024/02/02 05:35:57;;;;;;;12.88;6.88;;;;;;;7.73;47.66;100147.56;4957202;29;20126;-41
2024/02/02 05:38:23;;;;;;;16.30;7.15;;;;;;;7.76;47.96;100149.88;4957162;29;20078;-38
2024/02/02 05:40:49;;;;;;;13.50;6.95;;;;;;;7.85;48.18;100158.63;4956703;29;20589;-39
2024/02/02 05:43:14;;;;;;;15.52;7.10;;;;;;;7.98;47.56;100158.88;4956772;29;20042;-40
2024/02/02 05:45:40;;;;;;;13.10;7.05;;;;;;;7.96;48.14;100160.88;4955786;29;20110;-38
2024/02/02 05:48:06;;;;;;;12.20;6.72;;;;;;;7.80;48.10;100161.78;4956073;29;20492;-39
2024/02/02 05:50:31;;;;;;;11.52;6.78;;;;;;;7.93;48.42;100166.50;4955536;29;20042;-39
2024/02/02 05:52:57;;;;;;;14.85;7.07;;;;;;;7.90;48.31;100164.19;4955259;29;20035;-39
2024/02/02 05:55:22;;;;;;;13.35;6.85;;;;;;;7.83;49.29;100172.03;4955416;29;20497;-41
2024/02/02 05:57:47;;;;;;;12.98;7.22;;;;;;;8.03;49.01;100177.69;4955740;29;20031;-39
2024/02/02 06:00:13;;;;;;;13.48;6.90;;;;;;;8.07;49.07;100173.69;4955238;29;20554;-42
2024/02/02 06:02:38;;;;;;;14.20;6.82;;;;;;;8.07;49.15;100178.97;4929619;29;20043;-40
2024/02/02 06:05:04;;;;;;;11.50;7.22;;;;;;;8.22;48.64;100181.69;4954023;29;20027;-39
2024/02/02 06:07:30;;;;;;;11.10;6.80;;;;;;;7.71;49.67;100182.22;4955504;29;20054;-39
2024/02/02 06:09:55;;;;;;;11.15;6.57;;;;;;;7.66;50.73;100199.63;4956092;29;20023;-40
2024/02/02 06:12:20;;;;;;;14.02;7.40;;;;;;;7.79;50.01;100190.09;4956178;29;20389;-37
2024/02/02 06:14:46;;;;;;;16.50;7.78;;;;;;;8.12;49.78;100192.53;4955889;29;20023;-41
2024/02/02 06:17:11;;;;;;;14.82;7.72;;;;;;;8.42;48.86;100187.38;4956205;29;20472;-41
2024/02/02 06:19:37;;;;;;;14.02;7.68;;;;;;;8.14;49.36;100189.72;4953910;29;20635;-39
2024/02/02 06:22:02;;;;;;;13.88;8.00;;;;;;;7.86;50.26;100186.75;4955019;29;20035;-39
2024/02/02 06:24:27;;;;;;;18.48;8.00;;;;;;;7.97;49.95;100191.66;4955419;29;20023;-26
2024/02/02 06:26:53;;;;;;;16.05;8.02;;;;;;;8.25;49.88;100191.16;4938516;29;20027;-28
2024/02/02 06:29:18;;;;;;;12.85;7.90;;;;;;;7.88;50.72;100172.34;4955899;29;20063;-27
2024/02/02 06:31:44;;;;;;;13.70;7.43;;;;;;;7.98;51.05;100185.38;4955932;29;20110;-26
2024/02/02 06:34:09;;;;;;;17.67;8.00;;;;;;;7.86;51.34;100182.28;4955492;29;20043;-27
2024/02/02 06:36:35;;;;;;;16.63;8.05;;;;;;;7.75;52.02;100188.81;4954626;28;20035;-27
2024/02/02 06:39:00;;;;;;;16.15;8.27;;;;;;;7.81;51.81;100197.88;4954018;29;20094;-26
2024/02/02 06:41:25;;;;;;;18.83;8.65;;;;;;;8.05;51.35;100202.19;4955724;29;20409;-27
2024/02/02 06:43:51;;;;;;;17.60;9.20;;;;;;;7.79;52.46;100198.06;4955531;29;20023;-28
2024/02/02 06:46:16;;;;;;;24.50;8.77;;;;;;;7.93;52.40;100193.00;4955264;29;20431;-28
2024/02/02 06:48:46;;;;;;;19.17;9.57;;;;;;;7.86;52.70;100197.34;4954739;29;20031;-27
2024/02/02 06:51:12;;;;;;;22.38;9.43;;;;;;;8.35;51.73;100202.31;4955262;29;20035;-27
2024/02/02 06:53:37;;;;;;;15.32;9.32;;;;;;;8.21;52.17;100207.41;4955443;29;20062;-27
2024/02/02 06:56:26;;;;;;;18.23;9.68;;;;;;;8.38;52.10;100216.06;4955021;29;20035;-27
2024/02/02 06:58:51;;;;;;;16.13;8.95;;;;;;;8.14;53.32;100213.59;4955028;29;20035;-27
2024/02/02 07:01:17;;;;;;;16.50;9.65;;;;;;;8.29;53.13;100222.41;4955377;29;20562;-28
2024/02/02 07:03:42;;;;;;;18.55;9.93;;;;;;;8.61;52.60;100225.88;4955001;29;20041;-27
2024/02/02 07:06:08;;;;;;;18.90;10.35;;;;;;;8.68;52.43;100228.59;4955081;29;20023;-26
2024/02/02 07:08:33;;;;;;;18.80;10.07;;;;;;;8.64;52.79;100238.75;4937514;29;20027;-28
2024/02/02 07:11:08;;;;;;;17.00;9.27;;;;;;;8.24;53.92;100240.69;4955224;29;20019;-27
2024/02/02 07:13:45;;;;;;;21.65;9.90;;;;;;;8.05;54.46;100243.78;4955276;29;20078;-27
2024/02/02 07:16:21;;;;;;;15.32;9.32;;;;;;;7.71;55.89;100237.84;4954957;29;20031;-26
2024/02/02 07:18:47;;;;;;;19.52;9.70;;;;;;;7.78;56.03;100246.72;4954815;29;20023;-27
2024/02/02 07:21:13;;;;;;;20.02;9.68;;;;;;;7.77;56.53;100239.81;4954947;29;20031;-27
2024/02/02 07:23:41;;;;;;;21.75;10.15;;;;;;;8.21;55.26;100246.34;4954580;29;20456;-27
2024/02/02 07:26:24;;;;;;;16.23;9.88;;;;;;;8.32;55.26;100253.06;4955308;29;20019;-27
2024/02/02 07:28:49;;;;;;;17.05;9.90;;;;;;;8.27;55.56;100261.56;4954822;29;20046;-26
2024/02/02 07:31:33;;;;;;;24.55;10.23;;;;;;;8.21;56.29;100260.44;4954636;29;20436;-28
2024/02/02 07:34:05;;;;;;;17.65;9.82;;;;;;;8.15;56.48;100262.97;4954882;29;20074;-27
2024/02/02 07:36:33;;;;;;;16.98;10.10;;;;;;;7.95;57.40;100265.22;4954550;29;20051;-28
2024/02/02 07:38:59;;;;;;;20.95;9.82;;;;;;;8.36;56.36;100270.28;4954390;29;20086;-27
2024/02/02 07:41:26;;;;;;;19.38;10.75;;;;;;;8.17;57.12;100275.03;4954346;29;20027;-27
2024/02/02 07:43:54;;;;;;;19.20;10.43;;;;;;;8.15;57.69;100282.34;4954371;29;20031;-28
2024/02/02 07:46:19;;;;;;;18.65;10.40;;;;;;;8.40;56.99;100276.88;4954353;29;20030;-27
2024/02/02 07:48:46;;;;;;;14.30;9.00;;;;;;;8.16;57.73;100286.63;4954229;28;20095;-29
2024/02/02 07:51:12;;;;;;;18.50;10.38;;;;;;;8.34;57.74;100298.78;4954667;29;20127;-28
2024/02/02 07:53:38;;;;;;;18.90;10.32;;;;;;;8.26;58.29;100297.00;4954269;29;20498;-26
2024/02/02 07:56:04;;;;;;;18.02;10.68;;;;;;;8.23;58.36;100290.25;4954289;29;20027;-27
2024/02/02 07:58:30;;;;;;;17.38;10.15;;;;;;;8.41;58.38;100302.41;4954463;29;20019;-28
2024/02/02 08:00:55;;;;;;;16.98;9.13;;;;;;;8.45;57.86;100297.59;4953761;29;20023;-27
2024/02/02 08:03:20;;;;;;;17.45;9.68;;;;;;;8.65;57.23;100305.94;4937026;29;20047;-27
2024/02/02 08:05:46;;;;;;;17.73;10.13;;;;;;;8.48;57.84;100305.22;4954309;29;20069;-25
2024/02/02 08:08:12;;;;;;;16.35;9.75;;;;;;;8.39;58.17;100307.06;4934955;29;20024;-27
2024/02/02 08:10:43;;;;;;;17.75;9.82;;;;;;;8.32;58.68;100295.47;4935073;29;20044;-26
2024/02/02 08:13:13;;;;;;;17.98;10.52;;;;;;;8.45;58.21;100310.84;4934752;29;20110;-27
2024/02/02 08:15:39;;;;;;;17.52;10.07;;;;;;;8.36;58.97;100316.19;4934679;29;20035;-27
2024/02/02 08:18:08;;;;;;;18.02;9.90;;;;;;;8.61;58.11;100321.38;4934613;29;20034;-26
2024/02/02 08:20:36;;;;;;;17.73;10.13;;;;;;;8.57;58.41;100328.84;4934609;29;20099;-28
2024/02/02 08:23:01;;;;;;;15.63;9.48;;;;;;;8.75;57.91;100328.56;4933988;29;20098;-28
2024/02/02 08:25:27;;;;;;;15.93;10.07;;;;;;;8.92;57.47;100331.91;4940407;29;20090;-27
2024/02/02 08:27:53;;;;;;;18.30;10.07;;;;;;;8.91;57.40;100332.94;4952676;29;20130;-28
2024/02/02 08:30:18;;;;;;;18.80;10.27;;;;;;;8.79;58.16;100343.13;4952973;29;20023;-28
2024/02/02 08:32:51;;;;;;;15.18;9.57;;;;;;;8.60;58.18;100339.13;4952239;29;20496;-26
2024/02/02 08:35:17;;;;;;;17.25;9.98;;;;;;;9.03;57.26;100348.44;4952684;29;20035;-28
2024/02/02 08:37:43;;;;;;;20.35;10.32;;;;;;;8.97;57.50;100355.28;4946193;29;20040;-27
2024/02/02 08:40:33;;;;;;;18.48;10.40;;;;;;;8.69;58.29;100339.88;4933611;29;20023;-27
2024/02/02 08:42:59;;;;;;;18.08;9.88;;;;;;;8.37;59.42;100349.66;4933452;29;20453;-28
2024/02/02 08:45:42;;;;;;;18.35;10.30;;;;;;;8.54;59.71;100355.72;4933322;29;20031;-28
2024/02/02 08:48:27;;;;;;;18.77;10.50;;;;;;;8.67;59.25;100357.00;4933463;29;20516;-28
2024/02/02 08:50:57;;;;;;;16.63;9.90;;;;;;;8.58;59.46;100359.69;4933593;29;20028;-27
2024/02/02 08:53:24;;;;;;;17.70;11.18;;;;;;;8.74;59.15;100358.75;4933239;29;20544;-29
2024/02/02 08:55:50;;;;;;;17.88;11.25;;;;;;;8.66;59.63;100365.94;4932394;29;20028;-28
2024/02/02 08:58:30;;;;;;;17.20;10.82;;;;;;;8.43;60.06;100358.78;4933337;29;20032;-28
2024/02/02 09:00:56;;;;;;;;;;;;;;;8.70;59.90;100365.44;4939724;29;20444;-29
2024/02/02 09:03:43;;;;;;;16.23;9.77;;;;;;;8.50;60.03;100362.38;4952156;29;19961;-28
2024/02/02 09:06:30;;;;;;;18.45;10.07;;;;;;;8.82;59.17;100365.84;4952256;29;20098;-28
2024/02/02 09:08:55;;;;;;;19.83;10.70;;;;;;;8.68;59.54;100367.44;4952474;29;20029;-27
2024/02/02 09:11:22;;;;;;;16.85;10.15;;;;;;;8.54;60.04;100358.38;4946416;29;20019;-27
2024/02/02 09:14:14;;;;;;;19.80;11.25;;;;;;;8.66;59.71;100363.28;4941259;29;20110;-29
2024/02/02 09:16:45;;;;;;;18.48;12.18;;;;;;;8.82;59.18;100372.97;4943205;29;20030;-26
2024/02/02 09:19:26;;;;;;;18.10;11.15;;;;;;;8.25;60.68;100374.91;4940620;29;20019;-26
2024/02/02 09:21:54;;;;;;;21.38;12.07;;;;;;;8.35;60.60;100358.78;4940653;29;20163;-30
2024/02/02 09:24:29;;;;;;;21.35;11.57;;;;;;;8.39;60.21;100360.09;4929457;29;20034;-29
2024/02/02 09:26:57;;;;;;;21.77;10.85;;;;;;;8.59;60.09;100371.94;4941374;29;20027;-28
2024/02/02 09:29:23;;;;;;;20.15;11.75;;;;;;;8.74;59.25;100363.25;4937806;29;20015;-26
2024/02/02 09:31:48;;;;;;;20.35;11.45;;;;;;;8.96;58.73;100377.50;4942588;29;20069;-28
2024/02/02 09:34:20;;;;;;;20.65;10.68;;;;;;;9.09;58.92;100371.63;4943541;29;20061;-27
2024/02/02 09:36:45;;;;;;;20.38;11.52;;;;;;;9.02;58.66;100368.00;4945182;29;20032;-29
2024/02/02 09:39:36;;;;;;;19.00;11.60;;;;;;;9.18;58.09;100373.19;4951006;29;20501;-28
2024/02/02 09:42:45;;;;;;;18.38;10.32;;;;;;;8.97;57.63;100369.38;4951899;29;20126;-28
2024/02/02 09:45:50;;;;;;;18.08;10.57;;;;;;;8.97;58.18;100371.22;4948026;29;20411;-27
2024/02/02 09:48:57;;;;;;;19.10;10.07;;;;;;;8.82;57.89;100365.84;4941145;29;20043;-27
2024/02/02 09:51:37;;;;;;;17.65;10.82;;;;;;;9.11;57.40;100370.41;4936472;29;20043;-28
2024/02/02 09:54:21;;;;;;;;;;;;;;;9.00;57.52;100369.03;4949761;29;20023;-28
2024/02/02 09:57:05;;;;;;;20.73;11.35;;;;;;;9.22;56.58;100371.84;4943527;29;19922;-29
2024/02/02 09:59:46;;;;;;;17.75;10.55;;;;;;;9.44;55.73;100379.94;4943771;29;20020;-29
2024/02/02 10:02:17;;;;;;;18.80;10.88;;;;;;;9.46;56.26;100370.78;4935545;29;20110;-29
2024/02/02 10:04:56;;;;;;;16.17;10.27;;;;;;;9.35;55.77;100372.06;4937713;29;20035;-29
2024/02/02 10:07:47;;;;;;;16.75;10.43;;;;;;;9.39;55.93;100368.03;4936734;29;20026;-29
2024/02/02 10:10:45;;;;;;;20.77;11.35;;;;;;;9.62;55.44;100364.47;4946024;29;20106;-29
2024/02/02 10:13:29;;;;;;;18.88;10.68;;;;;;;9.55;54.77;100374.19;4921197;29;20491;-29
2024/02/02 10:16:12;;;;;;;16.55;10.10;;;;;;;9.22;55.29;100365.72;4956332;29;20079;-28
2024/02/02 10:18:51;;;;;;;15.35;9.77;;;;;;;9.26;55.56;100369.66;4956328;29;20133;-28
2024/02/02 10:21:42;;;;;;;16.95;10.38;;;;;;;9.55;54.90;100368.88;4955827;29;20027;-31
2024/02/02 10:24:45;;;;;;;20.08;11.05;;;;;;;9.18;54.95;100359.94;4955657;29;20113;-27
2024/02/02 10:27:40;;;;;;;15.05;9.55;;;;;;;9.34;54.52;100367.72;4947709;29;20139;-27
2024/02/02 10:30:14;;;;;;;16.17;10.68;;;;;;;9.26;54.24;100357.19;4859909;29;20065;-28
2024/02/02 10:32:52;;;;;;;16.92;10.73;;;;;;;9.41;54.04;100356.41;4954946;29;20050;-27
2024/02/02 10:35:29;;;;;;;18.58;10.05;;;;;;;9.45;53.91;100357.69;4949755;29;20047;-27
2024/02/02 10:37:59;;;;;;;16.58;9.70;;;;;;;9.34;53.70;100361.59;4954882;29;20118;-27
2024/02/02 10:40:56;;;;;;;20.88;9.98;;;;;;;9.76;52.56;100354.84;4954643;29;20067;-27
2024/02/02 10:44:01;;;;;;;18.35;10.48;;;;;;;9.50;53.04;100357.94;4955066;29;20046;-27
2024/02/02 10:46:36;;;;;;;19.45;10.10;;;;;;;9.30;54.31;100374.41;4954651;29;20098;-28
2024/02/02 10:49:08;;;;;;;16.33;8.75;;;;;;;9.33;53.43;100355.47;4955030;29;20035;-29
2024/02/02 10:51:33;;;;;;;20.77;10.02;;;;;;;9.39;53.34;100354.75;4954134;29;20109;-30
2024/02/02 10:54:30;;;;;;;17.55;10.60;;;;;;;9.90;52.33;100356.72;4954648;29;20107;-28
2024/02/02 10:57:21;;;;;;;17.08;10.77;;;;;;;9.81;51.77;100346.34;4953560;29;20424;-26
2024/02/02 10:59:54;;;;;;;18.67;10.10;;;;;;;9.68;52.08;100358.44;4954615;29;20031;-28
2024/02/02 11:02:31;;;;;;;18.20;9.95;;;;;;;9.47;52.31;100351.19;4954191;29;20035;-27
2024/02/02 11:05:32;;;;;;;16.35;9.95;;;;;;;9.83;51.80;100347.81;4954651;29;20027;-27
2024/02/02 11:08:08;;;;;;;15.32;10.10;;;;;;;10.37;50.45;100354.66;4954458;29;20043;-27
2024/02/02 11:11:01;;;;;;;19.10;10.80;;;;;;;10.15;51.31;100356.41;4954413;29;20027;-28
2024/02/02 11:13:29;;;;;;;19.38;10.10;;;;;;;10.04;51.64;100354.22;4954023;29;20086;-27
2024/02/02 11:16:03;;;;;;;16.90;10.18;;;;;;;10.36;50.77;100353.81;4954541;29;20472;-28
2024/02/02 11:18:32;;;;;;;19.20;10.20;;;;;;;10.16;50.71;100350.06;4954721;29;20364;-27
2024/02/02 11:21:00;;;;;;;16.63;10.30;;;;;;;10.60;49.73;100351.81;4954519;29;20098;-29
2024/02/02 11:23:41;;;;;;;15.80;10.00;;;;;;;10.66;48.78;100348.44;4953636;28;20065;-30
2024/02/02 11:26:15;;;;;;;15.35;9.48;;;;;;;10.74;48.68;100342.16;4954228;29;20023;-27
2024/02/02 11:28:53;;;;;;;15.20;9.02;;;;;;;10.60;47.96;100345.69;4954349;29;20105;-28
2024/02/02 11:31:29;;;;;;;11.32;7.45;;;;;;;10.37;47.84;100347.47;4954040;29;20031;-26
2024/02/02 11:34:14;;;;;;;15.55;7.68;;;;;;;10.52;46.69;100342.13;4953803;28;20107;-28